sensor_id;sensor_type;location;lat;lon;timestamp;P1;durP1;ratioP1;P2;durP2;ratioP2
6342;SDS011;3204;42.698;23.298;2022-10-13T00:01:05;15.80;;;13.18;;
6342;SDS011;3204;42.698;23.298;2022-10-13T00:03:35;13.35;;;12.02;;
6342;SDS011;3204;42.698;23.298;2022-10-13T00:06:04;14.13;;;12.55;;
6342;SDS011;3204;42.698;23.298;2022-10-13T00:08:31;14.63;;;11.57;;
6342;SDS011;3204;42.698;23.298;2022-10-13T00:10:57;13.40;;;11.70;;
6342;SDS011;3204;42.698;23.298;2022-10-13T00:13:24;13.23;;;11.05;;
6342;SDS011;3204;42.698;23.298;2022-10-13T00:15:50;14.48;;;12.43;;
6342;SDS011;3204;42.698;23.298;2022-10-13T00:18:16;15.38;;;12.20;;
6342;SDS011;3204;42.698;23.298;2022-10-13T00:20:45;17.38;;;11.70;;
6342;SDS011;3204;42.698;23.298;2022-10-13T00:23:13;11.50;;;10.50;;
6342;SDS011;3204;42.698;23.298;2022-10-13T00:25:40;12.77;;;11.27;;
6342;SDS011;3204;42.698;23.298;2022-10-13T00:28:10;12.68;;;11.48;;
6342;SDS011;3204;42.698;23.298;2022-10-13T00:30:36;15.25;;;12.20;;
6342;SDS011;3204;42.698;23.298;2022-10-13T00:33:02;13.77;;;12.38;;
6342;SDS011;3204;42.698;23.298;2022-10-13T00:35:28;13.88;;;11.85;;
6342;SDS011;3204;42.698;23.298;2022-10-13T00:37:53;14.15;;;12.13;;
6342;SDS011;3204;42.698;23.298;2022-10-13T00:40:18;13.85;;;10.95;;
6342;SDS011;3204;42.698;23.298;2022-10-13T00:42:44;13.73;;;11.32;;
6342;SDS011;3204;42.698;23.298;2022-10-13T00:47:42;11.68;;;10.60;;
6342;SDS011;3204;42.698;23.298;2022-10-13T00:50:11;13.45;;;11.52;;
6342;SDS011;3204;42.698;23.298;2022-10-13T00:52:41;13.75;;;12.38;;
6342;SDS011;3204;42.698;23.298;2022-10-13T00:55:08;14.93;;;12.32;;
6342;SDS011;3204;42.698;23.298;2022-10-13T00:57:38;14.05;;;12.60;;
6342;SDS011;3204;42.698;23.298;2022-10-13T01:00:06;21.58;;;16.95;;
6342;SDS011;3204;42.698;23.298;2022-10-13T01:02:34;17.23;;;14.55;;
6342;SDS011;3204;42.698;23.298;2022-10-13T01:05:02;18.13;;;13.93;;
6342;SDS011;3204;42.698;23.298;2022-10-13T01:07:29;16.27;;;13.00;;
6342;SDS011;3204;42.698;23.298;2022-10-13T01:09:55;16.95;;;12.93;;
6342;SDS011;3204;42.698;23.298;2022-10-13T01:12:27;14.10;;;12.02;;
6342;SDS011;3204;42.698;23.298;2022-10-13T01:15:22;17.05;;;13.02;;
6342;SDS011;3204;42.698;23.298;2022-10-13T01:20:47;14.65;;;11.48;;
6342;SDS011;3204;42.698;23.298;2022-10-13T01:26:16;14.32;;;11.80;;
6342;SDS011;3204;42.698;23.298;2022-10-13T01:39:53;16.63;;;13.00;;
6342;SDS011;3204;42.698;23.298;2022-10-13T01:42:33;14.23;;;12.45;;
6342;SDS011;3204;42.698;23.298;2022-10-13T01:45:14;18.08;;;12.95;;
6342;SDS011;3204;42.698;23.298;2022-10-13T01:47:44;16.05;;;13.18;;
6342;SDS011;3204;42.698;23.298;2022-10-13T01:50:12;15.77;;;12.80;;
6342;SDS011;3204;42.698;23.298;2022-10-13T01:52:41;19.90;;;12.98;;
6342;SDS011;3204;42.698;23.298;2022-10-13T01:55:08;16.00;;;13.02;;
6342;SDS011;3204;42.698;23.298;2022-10-13T01:57:36;14.95;;;13.18;;
6342;SDS011;3204;42.698;23.298;2022-10-13T02:00:06;23.17;;;13.60;;
6342;SDS011;3204;42.698;23.298;2022-10-13T02:08:23;23.90;;;15.80;;
6342;SDS011;3204;42.698;23.298;2022-10-13T02:11:00;22.33;;;14.82;;
6342;SDS011;3204;42.698;23.298;2022-10-13T02:13:38;23.02;;;16.65;;
6342;SDS011;3204;42.698;23.298;2022-10-13T02:16:08;23.15;;;15.63;;
6342;SDS011;3204;42.698;23.298;2022-10-13T02:18:36;25.60;;;16.15;;
6342;SDS011;3204;42.698;23.298;2022-10-13T02:21:02;26.30;;;15.27;;
6342;SDS011;3204;42.698;23.298;2022-10-13T02:23:28;35.60;;;15.02;;
6342;SDS011;3204;42.698;23.298;2022-10-13T02:25:54;22.38;;;15.07;;
6342;SDS011;3204;42.698;23.298;2022-10-13T02:28:21;26.10;;;15.10;;
6342;SDS011;3204;42.698;23.298;2022-10-13T02:30:47;24.90;;;15.05;;
6342;SDS011;3204;42.698;23.298;2022-10-13T02:33:13;20.50;;;14.10;;
6342;SDS011;3204;42.698;23.298;2022-10-13T02:35:39;16.17;;;13.88;;
6342;SDS011;3204;42.698;23.298;2022-10-13T02:38:06;19.70;;;14.07;;
6342;SDS011;3204;42.698;23.298;2022-10-13T02:40:31;20.98;;;14.00;;
6342;SDS011;3204;42.698;23.298;2022-10-13T02:42:57;20.60;;;13.55;;
6342;SDS011;3204;42.698;23.298;2022-10-13T02:45:22;18.70;;;14.77;;
6342;SDS011;3204;42.698;23.298;2022-10-13T02:47:48;23.80;;;14.63;;
6342;SDS011;3204;42.698;23.298;2022-10-13T02:50:13;23.35;;;15.50;;
6342;SDS011;3204;42.698;23.298;2022-10-13T02:52:39;20.65;;;14.68;;
6342;SDS011;3204;42.698;23.298;2022-10-13T02:55:05;17.75;;;13.70;;
6342;SDS011;3204;42.698;23.298;2022-10-13T02:57:32;21.80;;;14.27;;
6342;SDS011;3204;42.698;23.298;2022-10-13T02:59:57;29.13;;;15.50;;
6342;SDS011;3204;42.698;23.298;2022-10-13T03:02:24;25.63;;;15.43;;
6342;SDS011;3204;42.698;23.298;2022-10-13T03:04:50;24.50;;;14.98;;
6342;SDS011;3204;42.698;23.298;2022-10-13T03:07:16;34.15;;;15.88;;
6342;SDS011;3204;42.698;23.298;2022-10-13T03:09:41;26.05;;;15.98;;
6342;SDS011;3204;42.698;23.298;2022-10-13T03:12:07;36.53;;;20.75;;
6342;SDS011;3204;42.698;23.298;2022-10-13T03:14:32;27.40;;;16.75;;
6342;SDS011;3204;42.698;23.298;2022-10-13T03:16:58;24.73;;;16.80;;
6342;SDS011;3204;42.698;23.298;2022-10-13T03:19:23;22.77;;;15.95;;
6342;SDS011;3204;42.698;23.298;2022-10-13T03:21:49;28.77;;;17.30;;
6342;SDS011;3204;42.698;23.298;2022-10-13T03:24:14;23.38;;;18.02;;
6342;SDS011;3204;42.698;23.298;2022-10-13T03:26:40;25.50;;;18.27;;
6342;SDS011;3204;42.698;23.298;2022-10-13T03:29:06;31.52;;;19.73;;
6342;SDS011;3204;42.698;23.298;2022-10-13T03:31:31;30.23;;;19.63;;
6342;SDS011;3204;42.698;23.298;2022-10-13T03:33:56;36.30;;;19.48;;
6342;SDS011;3204;42.698;23.298;2022-10-13T03:36:22;33.38;;;19.70;;
6342;SDS011;3204;42.698;23.298;2022-10-13T03:38:48;33.15;;;21.08;;
6342;SDS011;3204;42.698;23.298;2022-10-13T03:41:14;34.03;;;20.73;;
6342;SDS011;3204;42.698;23.298;2022-10-13T03:43:42;30.92;;;20.13;;
6342;SDS011;3204;42.698;23.298;2022-10-13T03:46:09;26.63;;;19.13;;
6342;SDS011;3204;42.698;23.298;2022-10-13T03:48:37;31.83;;;19.88;;
6342;SDS011;3204;42.698;23.298;2022-10-13T03:51:04;26.98;;;19.23;;
6342;SDS011;3204;42.698;23.298;2022-10-13T03:53:31;28.73;;;19.40;;
6342;SDS011;3204;42.698;23.298;2022-10-13T03:55:56;36.55;;;19.65;;
6342;SDS011;3204;42.698;23.298;2022-10-13T03:58:23;32.53;;;19.23;;
6342;SDS011;3204;42.698;23.298;2022-10-13T04:00:49;30.17;;;19.73;;
6342;SDS011;3204;42.698;23.298;2022-10-13T04:03:14;29.55;;;19.95;;
6342;SDS011;3204;42.698;23.298;2022-10-13T04:05:40;31.65;;;19.33;;
6342;SDS011;3204;42.698;23.298;2022-10-13T04:08:07;35.05;;;19.48;;
6342;SDS011;3204;42.698;23.298;2022-10-13T04:10:32;31.10;;;20.17;;
6342;SDS011;3204;42.698;23.298;2022-10-13T04:12:58;35.67;;;19.92;;
6342;SDS011;3204;42.698;23.298;2022-10-13T04:15:24;27.77;;;20.48;;
6342;SDS011;3204;42.698;23.298;2022-10-13T04:17:49;34.13;;;20.35;;
6342;SDS011;3204;42.698;23.298;2022-10-13T04:20:15;28.00;;;20.10;;
6342;SDS011;3204;42.698;23.298;2022-10-13T04:22:40;35.40;;;21.60;;
6342;SDS011;3204;42.698;23.298;2022-10-13T04:25:06;34.13;;;21.53;;
6342;SDS011;3204;42.698;23.298;2022-10-13T04:27:32;32.88;;;21.48;;
6342;SDS011;3204;42.698;23.298;2022-10-13T04:30:00;33.15;;;21.45;;
6342;SDS011;3204;42.698;23.298;2022-10-13T04:32:26;39.22;;;23.27;;
6342;SDS011;3204;42.698;23.298;2022-10-13T04:34:51;47.83;;;23.00;;
6342;SDS011;3204;42.698;23.298;2022-10-13T04:37:17;36.55;;;23.35;;
6342;SDS011;3204;42.698;23.298;2022-10-13T04:39:42;39.83;;;21.98;;
6342;SDS011;3204;42.698;23.298;2022-10-13T04:42:08;41.15;;;25.45;;
6342;SDS011;3204;42.698;23.298;2022-10-13T04:44:33;36.17;;;23.20;;
6342;SDS011;3204;42.698;23.298;2022-10-13T04:46:59;34.50;;;22.13;;
6342;SDS011;3204;42.698;23.298;2022-10-13T04:49:25;39.13;;;23.50;;
6342;SDS011;3204;42.698;23.298;2022-10-13T04:51:50;37.67;;;24.30;;
6342;SDS011;3204;42.698;23.298;2022-10-13T04:54:16;43.28;;;24.13;;
6342;SDS011;3204;42.698;23.298;2022-10-13T04:56:45;49.08;;;23.63;;
6342;SDS011;3204;42.698;23.298;2022-10-13T04:59:10;43.22;;;26.15;;
6342;SDS011;3204;42.698;23.298;2022-10-13T05:01:36;35.25;;;23.20;;
6342;SDS011;3204;42.698;23.298;2022-10-13T05:04:02;40.85;;;22.58;;
6342;SDS011;3204;42.698;23.298;2022-10-13T05:06:30;37.43;;;23.93;;
6342;SDS011;3204;42.698;23.298;2022-10-13T05:08:57;36.90;;;22.48;;
6342;SDS011;3204;42.698;23.298;2022-10-13T05:11:24;40.38;;;24.05;;
6342;SDS011;3204;42.698;23.298;2022-10-13T05:13:50;40.08;;;24.73;;
6342;SDS011;3204;42.698;23.298;2022-10-13T05:16:17;41.53;;;23.95;;
6342;SDS011;3204;42.698;23.298;2022-10-13T05:18:44;41.35;;;24.92;;
6342;SDS011;3204;42.698;23.298;2022-10-13T05:21:11;38.78;;;24.20;;
6342;SDS011;3204;42.698;23.298;2022-10-13T05:23:41;43.00;;;25.85;;
6342;SDS011;3204;42.698;23.298;2022-10-13T05:26:10;44.97;;;26.33;;
6342;SDS011;3204;42.698;23.298;2022-10-13T05:28:38;48.03;;;26.75;;
6342;SDS011;3204;42.698;23.298;2022-10-13T05:31:17;51.03;;;27.65;;
6342;SDS011;3204;42.698;23.298;2022-10-13T05:33:44;53.92;;;28.42;;
6342;SDS011;3204;42.698;23.298;2022-10-13T05:36:12;51.83;;;27.77;;
6342;SDS011;3204;42.698;23.298;2022-10-13T05:38:40;60.33;;;29.33;;
6342;SDS011;3204;42.698;23.298;2022-10-13T05:41:07;64.50;;;31.27;;
6342;SDS011;3204;42.698;23.298;2022-10-13T05:43:34;63.60;;;32.22;;
6342;SDS011;3204;42.698;23.298;2022-10-13T05:46:01;76.70;;;36.28;;
6342;SDS011;3204;42.698;23.298;2022-10-13T05:48:27;87.82;;;37.17;;
6342;SDS011;3204;42.698;23.298;2022-10-13T05:50:53;90.45;;;39.83;;
6342;SDS011;3204;42.698;23.298;2022-10-13T05:53:21;63.57;;;30.90;;
6342;SDS011;3204;42.698;23.298;2022-10-13T05:55:48;73.72;;;35.08;;
6342;SDS011;3204;42.698;23.298;2022-10-13T05:58:15;57.10;;;29.90;;
6342;SDS011;3204;42.698;23.298;2022-10-13T06:00:41;57.25;;;29.60;;
6342;SDS011;3204;42.698;23.298;2022-10-13T06:03:26;44.25;;;26.98;;
6342;SDS011;3204;42.698;23.298;2022-10-13T06:05:52;58.85;;;29.33;;
6342;SDS011;3204;42.698;23.298;2022-10-13T06:08:18;56.33;;;29.08;;
6342;SDS011;3204;42.698;23.298;2022-10-13T06:10:43;58.90;;;29.05;;
6342;SDS011;3204;42.698;23.298;2022-10-13T06:13:09;48.15;;;28.02;;
6342;SDS011;3204;42.698;23.298;2022-10-13T06:15:35;60.45;;;31.13;;
6342;SDS011;3204;42.698;23.298;2022-10-13T06:18:00;60.63;;;29.63;;
6342;SDS011;3204;42.698;23.298;2022-10-13T06:20:26;64.90;;;31.25;;
6342;SDS011;3204;42.698;23.298;2022-10-13T06:22:54;66.25;;;30.90;;
6342;SDS011;3204;42.698;23.298;2022-10-13T06:25:20;60.13;;;29.60;;
6342;SDS011;3204;42.698;23.298;2022-10-13T06:27:46;51.28;;;29.23;;
6342;SDS011;3204;42.698;23.298;2022-10-13T06:30:11;62.88;;;32.03;;
6342;SDS011;3204;42.698;23.298;2022-10-13T06:32:37;64.32;;;31.45;;
6342;SDS011;3204;42.698;23.298;2022-10-13T06:35:03;56.50;;;31.02;;
6342;SDS011;3204;42.698;23.298;2022-10-13T06:37:28;55.47;;;29.92;;
6342;SDS011;3204;42.698;23.298;2022-10-13T06:39:54;55.10;;;30.77;;
6342;SDS011;3204;42.698;23.298;2022-10-13T06:42:20;57.60;;;30.63;;
6342;SDS011;3204;42.698;23.298;2022-10-13T06:44:45;54.95;;;30.60;;
6342;SDS011;3204;42.698;23.298;2022-10-13T06:47:11;58.53;;;31.00;;
6342;SDS011;3204;42.698;23.298;2022-10-13T06:49:38;94.07;;;33.88;;
6342;SDS011;3204;42.698;23.298;2022-10-13T06:52:04;53.10;;;29.27;;
6342;SDS011;3204;42.698;23.298;2022-10-13T06:54:29;52.67;;;30.98;;
6342;SDS011;3204;42.698;23.298;2022-10-13T06:56:55;51.67;;;30.15;;
6342;SDS011;3204;42.698;23.298;2022-10-13T06:59:21;52.67;;;30.38;;
6342;SDS011;3204;42.698;23.298;2022-10-13T07:01:47;56.72;;;29.23;;
6342;SDS011;3204;42.698;23.298;2022-10-13T07:04:13;50.58;;;27.88;;
6342;SDS011;3204;42.698;23.298;2022-10-13T07:06:39;48.00;;;27.65;;
6342;SDS011;3204;42.698;23.298;2022-10-13T07:09:05;51.17;;;28.30;;
6342;SDS011;3204;42.698;23.298;2022-10-13T07:11:33;49.33;;;28.75;;
6342;SDS011;3204;42.698;23.298;2022-10-13T07:13:59;46.17;;;28.95;;
6342;SDS011;3204;42.698;23.298;2022-10-13T07:16:25;49.13;;;29.05;;
6342;SDS011;3204;42.698;23.298;2022-10-13T07:18:51;40.78;;;26.83;;
6342;SDS011;3204;42.698;23.298;2022-10-13T07:21:16;43.00;;;27.77;;
6342;SDS011;3204;42.698;23.298;2022-10-13T07:23:42;45.10;;;27.33;;
6342;SDS011;3204;42.698;23.298;2022-10-13T07:26:08;51.67;;;30.30;;
6342;SDS011;3204;42.698;23.298;2022-10-13T07:28:36;46.85;;;29.55;;
6342;SDS011;3204;42.698;23.298;2022-10-13T07:31:13;45.22;;;26.85;;
6342;SDS011;3204;42.698;23.298;2022-10-13T07:33:40;47.72;;;28.20;;
6342;SDS011;3204;42.698;23.298;2022-10-13T07:36:09;44.30;;;27.45;;
6342;SDS011;3204;42.698;23.298;2022-10-13T07:38:35;50.95;;;26.50;;
6342;SDS011;3204;42.698;23.298;2022-10-13T07:41:01;46.90;;;26.58;;
6342;SDS011;3204;42.698;23.298;2022-10-13T07:43:27;42.72;;;27.75;;
6342;SDS011;3204;42.698;23.298;2022-10-13T07:45:53;48.20;;;27.70;;
6342;SDS011;3204;42.698;23.298;2022-10-13T07:48:18;50.42;;;27.80;;
6342;SDS011;3204;42.698;23.298;2022-10-13T07:50:44;37.42;;;25.77;;
6342;SDS011;3204;42.698;23.298;2022-10-13T07:53:09;37.17;;;25.88;;
6342;SDS011;3204;42.698;23.298;2022-10-13T07:55:35;40.42;;;26.08;;
6342;SDS011;3204;42.698;23.298;2022-10-13T07:58:01;38.17;;;25.55;;
6342;SDS011;3204;42.698;23.298;2022-10-13T08:00:27;40.72;;;26.63;;
6342;SDS011;3204;42.698;23.298;2022-10-13T08:02:53;38.67;;;26.45;;
6342;SDS011;3204;42.698;23.298;2022-10-13T08:05:19;58.53;;;33.80;;
6342;SDS011;3204;42.698;23.298;2022-10-13T08:07:45;42.25;;;25.63;;
6342;SDS011;3204;42.698;23.298;2022-10-13T08:10:10;38.17;;;27.10;;
6342;SDS011;3204;42.698;23.298;2022-10-13T08:12:36;43.80;;;27.23;;
6342;SDS011;3204;42.698;23.298;2022-10-13T08:15:03;38.95;;;26.73;;
6342;SDS011;3204;42.698;23.298;2022-10-13T08:17:29;37.50;;;26.25;;
6342;SDS011;3204;42.698;23.298;2022-10-13T08:19:54;45.03;;;27.40;;
6342;SDS011;3204;42.698;23.298;2022-10-13T08:22:20;42.13;;;28.48;;
6342;SDS011;3204;42.698;23.298;2022-10-13T08:24:45;55.40;;;29.92;;
6342;SDS011;3204;42.698;23.298;2022-10-13T08:27:12;55.05;;;32.65;;
6342;SDS011;3204;42.698;23.298;2022-10-13T08:29:48;51.47;;;30.42;;
6342;SDS011;3204;42.698;23.298;2022-10-13T08:32:13;52.22;;;31.35;;
6342;SDS011;3204;42.698;23.298;2022-10-13T08:34:39;45.35;;;28.42;;
6342;SDS011;3204;42.698;23.298;2022-10-13T08:37:04;49.60;;;28.27;;
6342;SDS011;3204;42.698;23.298;2022-10-13T08:39:30;61.95;;;37.28;;
6342;SDS011;3204;42.698;23.298;2022-10-13T08:41:55;62.30;;;31.02;;
6342;SDS011;3204;42.698;23.298;2022-10-13T08:49:33;49.47;;;30.40;;
6342;SDS011;3204;42.698;23.298;2022-10-13T08:52:02;46.40;;;27.65;;
6342;SDS011;3204;42.698;23.298;2022-10-13T08:54:29;46.47;;;26.45;;
6342;SDS011;3204;42.698;23.298;2022-10-13T08:56:54;34.78;;;25.70;;
6342;SDS011;3204;42.698;23.298;2022-10-13T08:59:20;38.15;;;26.63;;
6342;SDS011;3204;42.698;23.298;2022-10-13T09:01:46;34.63;;;26.52;;
6342;SDS011;3204;42.698;23.298;2022-10-13T09:09:55;35.63;;;25.73;;
6342;SDS011;3204;42.698;23.298;2022-10-13T09:12:22;42.17;;;26.73;;
6342;SDS011;3204;42.698;23.298;2022-10-13T09:15:00;36.47;;;25.40;;
6342;SDS011;3204;42.698;23.298;2022-10-13T09:17:29;41.03;;;25.85;;
6342;SDS011;3204;42.698;23.298;2022-10-13T09:20:03;33.97;;;24.73;;
6342;SDS011;3204;42.698;23.298;2022-10-13T09:27:46;50.65;;;25.77;;
6342;SDS011;3204;42.698;23.298;2022-10-13T09:35:47;39.72;;;26.20;;
6342;SDS011;3204;42.698;23.298;2022-10-13T09:38:36;34.35;;;25.52;;
6342;SDS011;3204;42.698;23.298;2022-10-13T09:46:25;51.28;;;27.98;;
6342;SDS011;3204;42.698;23.298;2022-10-13T09:49:36;61.10;;;31.77;;
6342;SDS011;3204;42.698;23.298;2022-10-13T09:51:48;54.55;;;30.77;;
6342;SDS011;3204;42.698;23.298;2022-10-13T09:57:01;34.60;;;24.85;;
6342;SDS011;3204;42.698;23.298;2022-10-13T09:59:35;37.50;;;24.08;;
6342;SDS011;3204;42.698;23.298;2022-10-13T10:08:13;39.00;;;27.10;;
6342;SDS011;3204;42.698;23.298;2022-10-13T10:10:44;45.42;;;26.98;;
6342;SDS011;3204;42.698;23.298;2022-10-13T10:13:12;30.15;;;23.30;;
6342;SDS011;3204;42.698;23.298;2022-10-13T10:18:25;40.35;;;28.27;;
6342;SDS011;3204;42.698;23.298;2022-10-13T10:23:53;34.17;;;23.85;;
6342;SDS011;3204;42.698;23.298;2022-10-13T10:26:31;45.97;;;26.60;;
6342;SDS011;3204;42.698;23.298;2022-10-13T10:31:57;71.25;;;38.08;;
6342;SDS011;3204;42.698;23.298;2022-10-13T10:39:47;58.53;;;30.33;;
6342;SDS011;3204;42.698;23.298;2022-10-13T10:45:25;170.48;;;89.78;;
6342;SDS011;3204;42.698;23.298;2022-10-13T10:47:53;77.57;;;33.53;;
6342;SDS011;3204;42.698;23.298;2022-10-13T10:50:23;34.45;;;23.33;;
6342;SDS011;3204;42.698;23.298;2022-10-13T10:55:42;26.27;;;21.00;;
6342;SDS011;3204;42.698;23.298;2022-10-13T11:00:45;24.00;;;19.52;;
6342;SDS011;3204;42.698;23.298;2022-10-13T11:03:32;37.20;;;20.90;;
6342;SDS011;3204;42.698;23.298;2022-10-13T11:14:28;45.55;;;22.13;;
6342;SDS011;3204;42.698;23.298;2022-10-13T11:16:37;27.92;;;20.05;;
6342;SDS011;3204;42.698;23.298;2022-10-13T11:19:35;25.13;;;18.42;;
6342;SDS011;3204;42.698;23.298;2022-10-13T11:34:57;23.55;;;18.52;;
6342;SDS011;3204;42.698;23.298;2022-10-13T11:37:23;25.95;;;19.60;;
6342;SDS011;3204;42.698;23.298;2022-10-13T11:45:21;88.07;;;23.35;;
6342;SDS011;3204;42.698;23.298;2022-10-13T11:50:58;30.40;;;19.98;;
6342;SDS011;3204;42.698;23.298;2022-10-13T12:01:46;26.73;;;18.40;;
6342;SDS011;3204;42.698;23.298;2022-10-13T12:04:13;28.75;;;17.30;;
6342;SDS011;3204;42.698;23.298;2022-10-13T12:06:39;24.95;;;18.98;;
6342;SDS011;3204;42.698;23.298;2022-10-13T12:09:13;25.13;;;18.02;;
6342;SDS011;3204;42.698;23.298;2022-10-13T12:11:41;22.45;;;17.05;;
6342;SDS011;3204;42.698;23.298;2022-10-13T12:14:19;18.70;;;16.70;;
6342;SDS011;3204;42.698;23.298;2022-10-13T12:16:52;23.77;;;17.48;;
6342;SDS011;3204;42.698;23.298;2022-10-13T12:19:19;20.83;;;15.00;;
6342;SDS011;3204;42.698;23.298;2022-10-13T12:21:47;22.88;;;14.52;;
6342;SDS011;3204;42.698;23.298;2022-10-13T12:24:17;16.88;;;13.38;;
6342;SDS011;3204;42.698;23.298;2022-10-13T12:26:50;14.70;;;13.25;;
6342;SDS011;3204;42.698;23.298;2022-10-13T12:29:16;15.77;;;13.27;;
6342;SDS011;3204;42.698;23.298;2022-10-13T12:31:44;16.15;;;13.82;;
6342;SDS011;3204;42.698;23.298;2022-10-13T12:36:40;14.90;;;13.40;;
6342;SDS011;3204;42.698;23.298;2022-10-13T12:39:11;15.02;;;13.32;;
6342;SDS011;3204;42.698;23.298;2022-10-13T12:41:39;15.18;;;13.32;;
6342;SDS011;3204;42.698;23.298;2022-10-13T12:44:11;14.70;;;12.68;;
6342;SDS011;3204;42.698;23.298;2022-10-13T12:49:12;13.30;;;12.10;;
6342;SDS011;3204;42.698;23.298;2022-10-13T12:51:45;14.00;;;12.05;;
6342;SDS011;3204;42.698;23.298;2022-10-13T12:54:32;16.02;;;12.50;;
6342;SDS011;3204;42.698;23.298;2022-10-13T12:56:59;12.88;;;10.82;;
6342;SDS011;3204;42.698;23.298;2022-10-13T12:59:29;12.32;;;11.02;;
6342;SDS011;3204;42.698;23.298;2022-10-13T13:01:57;13.93;;;11.05;;
6342;SDS011;3204;42.698;23.298;2022-10-13T13:04:26;11.43;;;10.35;;
6342;SDS011;3204;42.698;23.298;2022-10-13T13:07:02;11.38;;;10.52;;
6342;SDS011;3204;42.698;23.298;2022-10-13T13:09:29;11.60;;;10.63;;
6342;SDS011;3204;42.698;23.298;2022-10-13T13:19:41;11.35;;;10.07;;
6342;SDS011;3204;42.698;23.298;2022-10-13T13:22:08;11.05;;;10.05;;
6342;SDS011;3204;42.698;23.298;2022-10-13T13:24:34;10.63;;;9.38;;
6342;SDS011;3204;42.698;23.298;2022-10-13T13:27:22;11.13;;;10.02;;
6342;SDS011;3204;42.698;23.298;2022-10-13T13:29:49;20.40;;;17.65;;
6342;SDS011;3204;42.698;23.298;2022-10-13T13:32:16;13.43;;;10.43;;
6342;SDS011;3204;42.698;23.298;2022-10-13T13:34:43;12.18;;;10.77;;
6342;SDS011;3204;42.698;23.298;2022-10-13T13:37:19;11.30;;;10.38;;
6342;SDS011;3204;42.698;23.298;2022-10-13T13:39:49;11.73;;;10.73;;
6342;SDS011;3204;42.698;23.298;2022-10-13T13:42:15;14.57;;;12.55;;
6342;SDS011;3204;42.698;23.298;2022-10-13T13:44:40;11.65;;;10.57;;
6342;SDS011;3204;42.698;23.298;2022-10-13T13:47:11;13.82;;;10.57;;
6342;SDS011;3204;42.698;23.298;2022-10-13T13:49:41;10.90;;;9.90;;
6342;SDS011;3204;42.698;23.298;2022-10-13T13:52:06;10.73;;;9.63;;
6342;SDS011;3204;42.698;23.298;2022-10-13T13:54:35;10.32;;;9.23;;
6342;SDS011;3204;42.698;23.298;2022-10-13T13:57:00;14.35;;;10.52;;
6342;SDS011;3204;42.698;23.298;2022-10-13T13:59:26;13.07;;;10.02;;
6342;SDS011;3204;42.698;23.298;2022-10-13T14:01:51;11.98;;;9.30;;
6342;SDS011;3204;42.698;23.298;2022-10-13T14:04:17;17.48;;;11.65;;
6342;SDS011;3204;42.698;23.298;2022-10-13T14:06:42;11.45;;;9.70;;
6342;SDS011;3204;42.698;23.298;2022-10-13T14:09:08;16.67;;;10.25;;
6342;SDS011;3204;42.698;23.298;2022-10-13T14:11:34;15.25;;;9.55;;
6342;SDS011;3204;42.698;23.298;2022-10-13T14:13:59;13.77;;;11.07;;
6342;SDS011;3204;42.698;23.298;2022-10-13T14:16:26;12.65;;;11.50;;
6342;SDS011;3204;42.698;23.298;2022-10-13T14:18:52;11.93;;;10.73;;
6342;SDS011;3204;42.698;23.298;2022-10-13T14:21:19;12.82;;;11.10;;
6342;SDS011;3204;42.698;23.298;2022-10-13T14:23:45;12.43;;;10.73;;
6342;SDS011;3204;42.698;23.298;2022-10-13T14:26:11;15.90;;;11.43;;
6342;SDS011;3204;42.698;23.298;2022-10-13T14:28:41;15.57;;;10.35;;
6342;SDS011;3204;42.698;23.298;2022-10-13T14:31:07;14.60;;;9.73;;
6342;SDS011;3204;42.698;23.298;2022-10-13T14:33:34;12.60;;;10.35;;
6342;SDS011;3204;42.698;23.298;2022-10-13T14:36:00;17.13;;;10.35;;
6342;SDS011;3204;42.698;23.298;2022-10-13T14:38:27;19.38;;;11.45;;
6342;SDS011;3204;42.698;23.298;2022-10-13T14:40:56;14.88;;;11.27;;
6342;SDS011;3204;42.698;23.298;2022-10-13T14:43:23;13.07;;;11.00;;
6342;SDS011;3204;42.698;23.298;2022-10-13T14:45:48;11.73;;;10.40;;
6342;SDS011;3204;42.698;23.298;2022-10-13T14:48:14;13.25;;;10.52;;
6342;SDS011;3204;42.698;23.298;2022-10-13T14:50:39;22.85;;;11.15;;
6342;SDS011;3204;42.698;23.298;2022-10-13T14:53:05;12.20;;;9.95;;
6342;SDS011;3204;42.698;23.298;2022-10-13T14:55:33;16.33;;;10.32;;
6342;SDS011;3204;42.698;23.298;2022-10-13T14:57:59;9.57;;;8.82;;
6342;SDS011;3204;42.698;23.298;2022-10-13T15:00:24;9.73;;;7.65;;
6342;SDS011;3204;42.698;23.298;2022-10-13T15:02:50;9.35;;;8.40;;
6342;SDS011;3204;42.698;23.298;2022-10-13T15:05:16;9.05;;;8.15;;
6342;SDS011;3204;42.698;23.298;2022-10-13T15:07:42;9.57;;;7.75;;
6342;SDS011;3204;42.698;23.298;2022-10-13T15:10:07;13.45;;;8.70;;
6342;SDS011;3204;42.698;23.298;2022-10-13T15:12:33;9.20;;;8.40;;
6342;SDS011;3204;42.698;23.298;2022-10-13T15:14:58;11.13;;;8.80;;
6342;SDS011;3204;42.698;23.298;2022-10-13T15:17:24;13.07;;;8.45;;
6342;SDS011;3204;42.698;23.298;2022-10-13T15:19:50;8.85;;;8.02;;
6342;SDS011;3204;42.698;23.298;2022-10-13T15:22:15;9.80;;;8.80;;
6342;SDS011;3204;42.698;23.298;2022-10-13T15:24:41;9.50;;;8.57;;
6342;SDS011;3204;42.698;23.298;2022-10-13T15:27:07;8.52;;;7.63;;
6342;SDS011;3204;42.698;23.298;2022-10-13T15:29:33;9.27;;;8.32;;
6342;SDS011;3204;42.698;23.298;2022-10-13T15:32:08;8.80;;;8.07;;
6342;SDS011;3204;42.698;23.298;2022-10-13T15:34:37;9.25;;;8.20;;
6342;SDS011;3204;42.698;23.298;2022-10-13T15:37:04;9.13;;;8.30;;
6342;SDS011;3204;42.698;23.298;2022-10-13T15:39:30;8.77;;;8.07;;
6342;SDS011;3204;42.698;23.298;2022-10-13T15:41:55;9.55;;;8.73;;
6342;SDS011;3204;42.698;23.298;2022-10-13T15:44:23;10.30;;;9.00;;
6342;SDS011;3204;42.698;23.298;2022-10-13T15:46:49;9.43;;;8.65;;
6342;SDS011;3204;42.698;23.298;2022-10-13T15:49:15;9.45;;;8.57;;
6342;SDS011;3204;42.698;23.298;2022-10-13T15:51:41;10.55;;;8.40;;
6342;SDS011;3204;42.698;23.298;2022-10-13T15:54:06;9.43;;;8.43;;
6342;SDS011;3204;42.698;23.298;2022-10-13T15:56:32;8.85;;;8.15;;
6342;SDS011;3204;42.698;23.298;2022-10-13T15:58:57;12.60;;;8.20;;
6342;SDS011;3204;42.698;23.298;2022-10-13T16:01:23;8.73;;;7.88;;
6342;SDS011;3204;42.698;23.298;2022-10-13T16:03:51;9.48;;;8.25;;
6342;SDS011;3204;42.698;23.298;2022-10-13T16:06:18;10.10;;;9.20;;
6342;SDS011;3204;42.698;23.298;2022-10-13T16:08:46;9.40;;;8.57;;
6342;SDS011;3204;42.698;23.298;2022-10-13T16:11:13;11.20;;;8.65;;
6342;SDS011;3204;42.698;23.298;2022-10-13T16:13:41;11.30;;;9.25;;
6342;SDS011;3204;42.698;23.298;2022-10-13T16:16:10;10.07;;;9.18;;
6342;SDS011;3204;42.698;23.298;2022-10-13T16:18:36;10.50;;;9.40;;
6342;SDS011;3204;42.698;23.298;2022-10-13T16:21:06;11.30;;;10.25;;
6342;SDS011;3204;42.698;23.298;2022-10-13T16:23:33;10.48;;;9.40;;
6342;SDS011;3204;42.698;23.298;2022-10-13T16:26:00;16.20;;;10.80;;
6342;SDS011;3204;42.698;23.298;2022-10-13T16:28:26;10.27;;;9.25;;
6342;SDS011;3204;42.698;23.298;2022-10-13T16:30:51;12.15;;;8.18;;
6342;SDS011;3204;42.698;23.298;2022-10-13T16:33:17;9.82;;;8.80;;
6342;SDS011;3204;42.698;23.298;2022-10-13T16:35:42;9.57;;;8.45;;
6342;SDS011;3204;42.698;23.298;2022-10-13T16:38:08;9.55;;;7.68;;
6342;SDS011;3204;42.698;23.298;2022-10-13T16:40:35;9.27;;;7.80;;
6342;SDS011;3204;42.698;23.298;2022-10-13T16:43:03;10.27;;;8.20;;
6342;SDS011;3204;42.698;23.298;2022-10-13T16:45:32;10.38;;;8.15;;
6342;SDS011;3204;42.698;23.298;2022-10-13T16:47:57;8.38;;;7.28;;
6342;SDS011;3204;42.698;23.298;2022-10-13T16:50:23;9.05;;;7.15;;
6342;SDS011;3204;42.698;23.298;2022-10-13T16:52:48;8.25;;;7.65;;
6342;SDS011;3204;42.698;23.298;2022-10-13T16:55:14;9.93;;;7.25;;